モンロビア の空港の天気 - METARとTAF

モンロビア・ロバーツ国際空港 ( GLRB / ROB ) - リベリア モンロビア
飛行場実況気象(Metar)
観測時間01/29 07:30 GMT (01/29 07:30 UTC)
風向・風速北東 3m/s
視程3000m
天気現象もや
全天の4割程度の雲 雲底高度 120m
全天の8割程度の雲 雲底高度 300m
少しの雲 雲底高度 700m
気温25℃
湿度94%
気圧1010hPa
METARGLRB 290730Z 04005KT 3000 BR SCT004 BKN010 FEW023CB 25/24 Q1010 RMK CB-W
過去の天気等 Google飛行場航空写真 Wunderground天気予報

過去48時間のMETAR

飛行場予報(TAF)
発表時間: 1/29 05:00 GMT (1/29 05:00 UTC)
予報対象時間: 29日6時 GMT ~ 30日6時 GMT
風向・風速南西 4m/s
視程8000m
全天の4割程度の雲 雲底高度 520m
29日6時 GMT ~ 29日8時 GMT に徐々に
風向・風速不定 1m/s
全天の4割程度の雲 雲底高度 300m
29日9時 GMT ~ 29日13時 GMT に一時的に
風向・風速南西 5m/s
全天の4割程度の雲 雲底高度 550m
TAF GLRB 290500Z 2906/3006 23008KT 8000 SCT017
BECMG 2906/2908 VRB02KT SCT010
TEMPO 2909/2913 22010KT SCT018